sensor_id;sensor_type;location;lat;lon;timestamp;P1;durP1;ratioP1;P2;durP2;ratioP2
44842;SDS011;31884;52.538;13.820;2023-08-31T00:02:01;3.22;;;2.40;;
44842;SDS011;31884;52.538;13.820;2023-08-31T00:04:28;3.90;;;2.72;;
44842;SDS011;31884;52.538;13.820;2023-08-31T00:06:54;3.10;;;2.50;;
44842;SDS011;31884;52.538;13.820;2023-08-31T00:09:21;5.05;;;2.40;;
44842;SDS011;31884;52.538;13.820;2023-08-31T00:11:50;3.53;;;2.60;;
44842;SDS011;31884;52.538;13.820;2023-08-31T00:14:16;3.38;;;2.90;;
44842;SDS011;31884;52.538;13.820;2023-08-31T00:16:42;2.80;;;2.50;;
44842;SDS011;31884;52.538;13.820;2023-08-31T00:19:07;2.28;;;2.08;;
44842;SDS011;31884;52.538;13.820;2023-08-31T00:21:33;4.30;;;2.40;;
44842;SDS011;31884;52.538;13.820;2023-08-31T00:23:58;2.53;;;2.33;;
44842;SDS011;31884;52.538;13.820;2023-08-31T00:26:24;2.45;;;2.25;;
44842;SDS011;31884;52.538;13.820;2023-08-31T00:28:50;3.38;;;2.70;;
44842;SDS011;31884;52.538;13.820;2023-08-31T00:31:17;4.00;;;2.90;;
44842;SDS011;31884;52.538;13.820;2023-08-31T00:33:42;2.92;;;2.63;;
44842;SDS011;31884;52.538;13.820;2023-08-31T00:36:08;2.83;;;2.60;;
44842;SDS011;31884;52.538;13.820;2023-08-31T00:38:34;2.72;;;2.10;;
44842;SDS011;31884;52.538;13.820;2023-08-31T00:40:59;3.63;;;2.47;;
44842;SDS011;31884;52.538;13.820;2023-08-31T00:43:25;2.67;;;2.17;;
44842;SDS011;31884;52.538;13.820;2023-08-31T00:45:51;3.30;;;2.78;;
44842;SDS011;31884;52.538;13.820;2023-08-31T00:48:23;4.78;;;2.75;;
44842;SDS011;31884;52.538;13.820;2023-08-31T00:50:49;2.83;;;2.25;;
44842;SDS011;31884;52.538;13.820;2023-08-31T00:53:15;4.88;;;2.15;;
44842;SDS011;31884;52.538;13.820;2023-08-31T00:55:41;2.60;;;2.17;;
44842;SDS011;31884;52.538;13.820;2023-08-31T00:58:09;2.88;;;2.30;;
44842;SDS011;31884;52.538;13.820;2023-08-31T01:00:43;2.78;;;2.40;;
44842;SDS011;31884;52.538;13.820;2023-08-31T01:03:42;4.03;;;2.60;;
44842;SDS011;31884;52.538;13.820;2023-08-31T01:06:44;3.05;;;2.75;;
44842;SDS011;31884;52.538;13.820;2023-08-31T01:09:19;2.15;;;1.95;;
44842;SDS011;31884;52.538;13.820;2023-08-31T01:12:03;4.88;;;2.65;;
44842;SDS011;31884;52.538;13.820;2023-08-31T01:14:38;2.63;;;2.42;;
44842;SDS011;31884;52.538;13.820;2023-08-31T01:17:13;4.28;;;2.35;;
44842;SDS011;31884;52.538;13.820;2023-08-31T01:19:50;3.53;;;3.03;;
44842;SDS011;31884;52.538;13.820;2023-08-31T01:22:25;4.38;;;2.72;;
44842;SDS011;31884;52.538;13.820;2023-08-31T01:25:05;4.50;;;2.80;;
44842;SDS011;31884;52.538;13.820;2023-08-31T01:27:34;3.60;;;2.25;;
44842;SDS011;31884;52.538;13.820;2023-08-31T01:30:01;4.70;;;2.78;;
44842;SDS011;31884;52.538;13.820;2023-08-31T01:32:27;3.75;;;2.55;;
44842;SDS011;31884;52.538;13.820;2023-08-31T01:34:53;2.63;;;2.42;;
44842;SDS011;31884;52.538;13.820;2023-08-31T01:38:04;3.10;;;2.40;;
44842;SDS011;31884;52.538;13.820;2023-08-31T01:40:21;2.83;;;2.60;;
44842;SDS011;31884;52.538;13.820;2023-08-31T01:42:52;3.47;;;2.85;;
44842;SDS011;31884;52.538;13.820;2023-08-31T01:45:20;3.30;;;2.90;;
44842;SDS011;31884;52.538;13.820;2023-08-31T01:47:47;4.38;;;3.03;;
44842;SDS011;31884;52.538;13.820;2023-08-31T01:50:13;2.75;;;2.25;;
44842;SDS011;31884;52.538;13.820;2023-08-31T01:52:39;3.15;;;2.60;;
44842;SDS011;31884;52.538;13.820;2023-08-31T01:55:05;3.60;;;2.45;;
44842;SDS011;31884;52.538;13.820;2023-08-31T01:57:31;4.07;;;2.78;;
44842;SDS011;31884;52.538;13.820;2023-08-31T01:59:57;3.85;;;3.20;;
44842;SDS011;31884;52.538;13.820;2023-08-31T02:02:23;3.47;;;2.90;;
44842;SDS011;31884;52.538;13.820;2023-08-31T02:04:48;3.22;;;2.92;;
44842;SDS011;31884;52.538;13.820;2023-08-31T02:07:15;4.57;;;2.80;;
44842;SDS011;31884;52.538;13.820;2023-08-31T02:09:41;3.38;;;3.08;;
44842;SDS011;31884;52.538;13.820;2023-08-31T02:12:07;3.50;;;2.90;;
44842;SDS011;31884;52.538;13.820;2023-08-31T02:14:34;3.72;;;2.80;;
44842;SDS011;31884;52.538;13.820;2023-08-31T02:17:00;4.85;;;2.90;;
44842;SDS011;31884;52.538;13.820;2023-08-31T02:19:26;3.47;;;3.00;;
44842;SDS011;31884;52.538;13.820;2023-08-31T02:21:51;5.43;;;3.10;;
44842;SDS011;31884;52.538;13.820;2023-08-31T02:24:17;3.70;;;3.30;;
44842;SDS011;31884;52.538;13.820;2023-08-31T02:26:42;4.35;;;3.47;;
44842;SDS011;31884;52.538;13.820;2023-08-31T02:29:07;3.47;;;3.08;;
44842;SDS011;31884;52.538;13.820;2023-08-31T02:31:33;3.95;;;3.40;;
44842;SDS011;31884;52.538;13.820;2023-08-31T02:33:58;3.80;;;3.45;;
44842;SDS011;31884;52.538;13.820;2023-08-31T02:36:24;3.03;;;2.72;;
44842;SDS011;31884;52.538;13.820;2023-08-31T02:38:49;2.90;;;2.70;;
44842;SDS011;31884;52.538;13.820;2023-08-31T02:41:15;3.67;;;2.97;;
44842;SDS011;31884;52.538;13.820;2023-08-31T02:43:41;3.00;;;2.70;;
44842;SDS011;31884;52.538;13.820;2023-08-31T02:46:07;3.17;;;2.85;;
44842;SDS011;31884;52.538;13.820;2023-08-31T02:48:33;2.67;;;2.47;;
44842;SDS011;31884;52.538;13.820;2023-08-31T02:50:59;3.42;;;3.00;;
44842;SDS011;31884;52.538;13.820;2023-08-31T02:53:29;3.40;;;3.03;;
44842;SDS011;31884;52.538;13.820;2023-08-31T02:55:57;3.42;;;3.00;;
44842;SDS011;31884;52.538;13.820;2023-08-31T02:58:23;2.83;;;2.58;;
44842;SDS011;31884;52.538;13.820;2023-08-31T03:00:49;4.45;;;2.78;;
44842;SDS011;31884;52.538;13.820;2023-08-31T03:03:15;4.05;;;2.55;;
44842;SDS011;31884;52.538;13.820;2023-08-31T03:05:41;2.85;;;2.55;;
44842;SDS011;31884;52.538;13.820;2023-08-31T03:08:07;2.35;;;2.15;;
44842;SDS011;31884;52.538;13.820;2023-08-31T03:10:33;3.17;;;2.00;;
44842;SDS011;31884;52.538;13.820;2023-08-31T03:12:58;3.20;;;2.00;;
44842;SDS011;31884;52.538;13.820;2023-08-31T03:15:24;2.28;;;1.77;;
44842;SDS011;31884;52.538;13.820;2023-08-31T03:17:50;2.60;;;2.03;;
44842;SDS011;31884;52.538;13.820;2023-08-31T03:20:15;3.70;;;1.83;;
44842;SDS011;31884;52.538;13.820;2023-08-31T03:22:41;1.38;;;1.27;;
44842;SDS011;31884;52.538;13.820;2023-08-31T03:25:06;1.65;;;1.33;;
44842;SDS011;31884;52.538;13.820;2023-08-31T03:27:32;2.58;;;1.55;;
44842;SDS011;31884;52.538;13.820;2023-08-31T03:29:58;1.35;;;1.23;;
44842;SDS011;31884;52.538;13.820;2023-08-31T03:32:23;1.55;;;1.30;;
44842;SDS011;31884;52.538;13.820;2023-08-31T03:34:49;1.88;;;1.50;;
44842;SDS011;31884;52.538;13.820;2023-08-31T03:37:15;1.85;;;1.52;;
44842;SDS011;31884;52.538;13.820;2023-08-31T03:39:40;1.55;;;1.38;;
44842;SDS011;31884;52.538;13.820;2023-08-31T03:42:07;2.22;;;1.65;;
44842;SDS011;31884;52.538;13.820;2023-08-31T03:44:36;1.90;;;1.40;;
44842;SDS011;31884;52.538;13.820;2023-08-31T03:47:02;1.30;;;1.10;;
44842;SDS011;31884;52.538;13.820;2023-08-31T03:49:28;2.10;;;1.42;;
44842;SDS011;31884;52.538;13.820;2023-08-31T03:51:55;1.50;;;1.40;;
44842;SDS011;31884;52.538;13.820;2023-08-31T03:54:20;2.92;;;1.83;;
44842;SDS011;31884;52.538;13.820;2023-08-31T03:56:46;1.75;;;1.50;;
44842;SDS011;31884;52.538;13.820;2023-08-31T03:59:11;2.80;;;1.70;;
44842;SDS011;31884;52.538;13.820;2023-08-31T04:01:37;2.08;;;1.63;;
44842;SDS011;31884;52.538;13.820;2023-08-31T04:04:02;1.67;;;1.50;;
44842;SDS011;31884;52.538;13.820;2023-08-31T04:06:29;1.85;;;1.50;;
44842;SDS011;31884;52.538;13.820;2023-08-31T04:08:54;2.13;;;1.55;;
44842;SDS011;31884;52.538;13.820;2023-08-31T04:11:20;1.83;;;1.50;;
44842;SDS011;31884;52.538;13.820;2023-08-31T04:13:46;3.05;;;1.77;;
44842;SDS011;31884;52.538;13.820;2023-08-31T04:16:11;3.10;;;2.00;;
44842;SDS011;31884;52.538;13.820;2023-08-31T04:18:37;1.70;;;1.55;;
44842;SDS011;31884;52.538;13.820;2023-08-31T04:21:03;1.65;;;1.52;;
44842;SDS011;31884;52.538;13.820;2023-08-31T04:23:28;1.70;;;1.50;;
44842;SDS011;31884;52.538;13.820;2023-08-31T04:25:54;1.35;;;1.25;;
44842;SDS011;31884;52.538;13.820;2023-08-31T04:28:21;1.75;;;1.48;;
44842;SDS011;31884;52.538;13.820;2023-08-31T04:30:46;2.25;;;1.85;;
44842;SDS011;31884;52.538;13.820;2023-08-31T04:33:12;2.05;;;1.75;;
44842;SDS011;31884;52.538;13.820;2023-08-31T04:35:37;2.03;;;1.67;;
44842;SDS011;31884;52.538;13.820;2023-08-31T04:38:03;2.42;;;1.73;;
44842;SDS011;31884;52.538;13.820;2023-08-31T04:40:28;1.65;;;1.45;;
44842;SDS011;31884;52.538;13.820;2023-08-31T04:42:54;2.15;;;1.95;;
44842;SDS011;31884;52.538;13.820;2023-08-31T04:45:20;2.38;;;1.80;;
44842;SDS011;31884;52.538;13.820;2023-08-31T04:47:45;2.55;;;2.05;;
44842;SDS011;31884;52.538;13.820;2023-08-31T04:50:11;3.35;;;2.40;;
44842;SDS011;31884;52.538;13.820;2023-08-31T04:52:36;2.88;;;1.95;;
44842;SDS011;31884;52.538;13.820;2023-08-31T04:55:02;3.40;;;2.17;;
44842;SDS011;31884;52.538;13.820;2023-08-31T04:57:28;2.95;;;2.35;;
44842;SDS011;31884;52.538;13.820;2023-08-31T04:59:54;2.63;;;2.28;;
44842;SDS011;31884;52.538;13.820;2023-08-31T05:02:19;2.22;;;1.90;;
44842;SDS011;31884;52.538;13.820;2023-08-31T05:04:45;2.17;;;1.98;;
44842;SDS011;31884;52.538;13.820;2023-08-31T05:07:10;2.80;;;2.30;;
44842;SDS011;31884;52.538;13.820;2023-08-31T05:09:36;3.20;;;2.40;;
44842;SDS011;31884;52.538;13.820;2023-08-31T05:12:02;3.33;;;2.47;;
44842;SDS011;31884;52.538;13.820;2023-08-31T05:14:30;2.97;;;2.30;;
44842;SDS011;31884;52.538;13.820;2023-08-31T05:16:56;4.10;;;2.72;;
44842;SDS011;31884;52.538;13.820;2023-08-31T05:19:21;3.05;;;2.33;;
44842;SDS011;31884;52.538;13.820;2023-08-31T05:21:47;3.03;;;2.40;;
44842;SDS011;31884;52.538;13.820;2023-08-31T05:24:13;4.85;;;2.72;;
44842;SDS011;31884;52.538;13.820;2023-08-31T05:26:41;4.32;;;3.15;;
44842;SDS011;31884;52.538;13.820;2023-08-31T05:29:07;3.08;;;2.65;;
44842;SDS011;31884;52.538;13.820;2023-08-31T05:31:32;3.47;;;2.65;;
44842;SDS011;31884;52.538;13.820;2023-08-31T05:33:58;3.15;;;2.67;;
44842;SDS011;31884;52.538;13.820;2023-08-31T05:36:23;4.88;;;2.63;;
44842;SDS011;31884;52.538;13.820;2023-08-31T05:38:50;2.75;;;2.17;;
44842;SDS011;31884;52.538;13.820;2023-08-31T05:41:16;2.90;;;2.33;;
44842;SDS011;31884;52.538;13.820;2023-08-31T05:43:42;3.72;;;2.75;;
44842;SDS011;31884;52.538;13.820;2023-08-31T05:46:07;3.65;;;2.70;;
44842;SDS011;31884;52.538;13.820;2023-08-31T05:48:33;3.65;;;3.08;;
44842;SDS011;31884;52.538;13.820;2023-08-31T05:50:59;5.90;;;3.28;;
44842;SDS011;31884;52.538;13.820;2023-08-31T05:53:25;5.53;;;3.10;;
44842;SDS011;31884;52.538;13.820;2023-08-31T05:55:51;4.28;;;3.05;;
44842;SDS011;31884;52.538;13.820;2023-08-31T05:58:16;3.50;;;2.33;;
44842;SDS011;31884;52.538;13.820;2023-08-31T06:00:42;3.90;;;3.08;;
44842;SDS011;31884;52.538;13.820;2023-08-31T06:03:07;4.00;;;3.20;;
44842;SDS011;31884;52.538;13.820;2023-08-31T06:05:34;3.60;;;3.13;;
44842;SDS011;31884;52.538;13.820;2023-08-31T06:08:00;5.35;;;3.38;;
44842;SDS011;31884;52.538;13.820;2023-08-31T06:10:25;5.15;;;4.10;;
44842;SDS011;31884;52.538;13.820;2023-08-31T06:12:51;4.40;;;3.95;;
44842;SDS011;31884;52.538;13.820;2023-08-31T06:15:16;5.57;;;3.60;;
44842;SDS011;31884;52.538;13.820;2023-08-31T06:17:42;4.28;;;3.53;;
44842;SDS011;31884;52.538;13.820;2023-08-31T06:20:08;4.15;;;3.42;;
44842;SDS011;31884;52.538;13.820;2023-08-31T06:22:34;4.60;;;3.88;;
44842;SDS011;31884;52.538;13.820;2023-08-31T06:25:03;4.90;;;3.20;;
44842;SDS011;31884;52.538;13.820;2023-08-31T06:27:30;4.97;;;3.47;;
44842;SDS011;31884;52.538;13.820;2023-08-31T06:29:56;4.18;;;3.78;;
44842;SDS011;31884;52.538;13.820;2023-08-31T06:32:21;4.88;;;3.78;;
44842;SDS011;31884;52.538;13.820;2023-08-31T06:34:48;4.63;;;3.45;;
44842;SDS011;31884;52.538;13.820;2023-08-31T06:37:13;4.03;;;3.53;;
44842;SDS011;31884;52.538;13.820;2023-08-31T06:39:39;4.28;;;3.42;;
44842;SDS011;31884;52.538;13.820;2023-08-31T06:42:06;3.85;;;3.13;;
44842;SDS011;31884;52.538;13.820;2023-08-31T06:44:32;5.65;;;3.80;;
44842;SDS011;31884;52.538;13.820;2023-08-31T06:46:57;4.10;;;3.40;;
44842;SDS011;31884;52.538;13.820;2023-08-31T06:49:23;3.95;;;3.40;;
44842;SDS011;31884;52.538;13.820;2023-08-31T06:51:49;4.07;;;3.60;;
44842;SDS011;31884;52.538;13.820;2023-08-31T06:54:15;4.28;;;3.65;;
44842;SDS011;31884;52.538;13.820;2023-08-31T06:56:40;5.53;;;3.85;;
44842;SDS011;31884;52.538;13.820;2023-08-31T06:59:06;5.30;;;4.30;;
44842;SDS011;31884;52.538;13.820;2023-08-31T07:01:31;4.25;;;3.85;;
44842;SDS011;31884;52.538;13.820;2023-08-31T07:03:57;8.20;;;5.20;;
44842;SDS011;31884;52.538;13.820;2023-08-31T07:06:23;4.60;;;3.70;;
44842;SDS011;31884;52.538;13.820;2023-08-31T07:08:49;5.35;;;3.42;;
44842;SDS011;31884;52.538;13.820;2023-08-31T07:11:16;4.28;;;3.03;;
44842;SDS011;31884;52.538;13.820;2023-08-31T07:13:42;3.60;;;3.28;;
44842;SDS011;31884;52.538;13.820;2023-08-31T07:16:07;5.85;;;3.95;;
44842;SDS011;31884;52.538;13.820;2023-08-31T07:18:33;7.68;;;4.07;;
44842;SDS011;31884;52.538;13.820;2023-08-31T07:20:58;4.18;;;3.53;;
44842;SDS011;31884;52.538;13.820;2023-08-31T07:23:24;7.97;;;3.28;;
44842;SDS011;31884;52.538;13.820;2023-08-31T07:25:50;5.22;;;2.80;;
44842;SDS011;31884;52.538;13.820;2023-08-31T07:28:15;3.80;;;3.20;;
44842;SDS011;31884;52.538;13.820;2023-08-31T07:30:41;7.43;;;3.63;;
44842;SDS011;31884;52.538;13.820;2023-08-31T07:33:06;2.72;;;2.47;;
44842;SDS011;31884;52.538;13.820;2023-08-31T07:35:32;4.47;;;2.42;;
44842;SDS011;31884;52.538;13.820;2023-08-31T07:37:58;2.60;;;2.33;;
44842;SDS011;31884;52.538;13.820;2023-08-31T07:40:24;3.20;;;2.10;;
44842;SDS011;31884;52.538;13.820;2023-08-31T07:42:50;2.78;;;2.28;;
44842;SDS011;31884;52.538;13.820;2023-08-31T07:45:16;3.22;;;2.80;;
44842;SDS011;31884;52.538;13.820;2023-08-31T07:47:42;3.67;;;2.20;;
44842;SDS011;31884;52.538;13.820;2023-08-31T07:50:07;6.53;;;2.63;;
44842;SDS011;31884;52.538;13.820;2023-08-31T07:52:33;2.90;;;2.60;;
44842;SDS011;31884;52.538;13.820;2023-08-31T07:54:59;2.58;;;2.13;;
44842;SDS011;31884;52.538;13.820;2023-08-31T07:57:25;4.53;;;2.47;;
44842;SDS011;31884;52.538;13.820;2023-08-31T07:59:51;5.25;;;2.78;;
44842;SDS011;31884;52.538;13.820;2023-08-31T08:02:16;3.40;;;2.60;;
44842;SDS011;31884;52.538;13.820;2023-08-31T08:04:42;2.53;;;2.20;;
44842;SDS011;31884;52.538;13.820;2023-08-31T08:07:07;2.67;;;2.30;;
44842;SDS011;31884;52.538;13.820;2023-08-31T08:09:33;4.03;;;2.20;;
44842;SDS011;31884;52.538;13.820;2023-08-31T08:11:59;3.53;;;2.55;;
44842;SDS011;31884;52.538;13.820;2023-08-31T08:14:24;2.95;;;2.28;;
44842;SDS011;31884;52.538;13.820;2023-08-31T08:16:50;6.28;;;2.90;;
44842;SDS011;31884;52.538;13.820;2023-08-31T08:19:20;3.83;;;2.38;;
44842;SDS011;31884;52.538;13.820;2023-08-31T08:21:49;6.07;;;2.28;;
44842;SDS011;31884;52.538;13.820;2023-08-31T08:24:16;2.50;;;2.22;;
44842;SDS011;31884;52.538;13.820;2023-08-31T08:26:41;2.78;;;2.30;;
44842;SDS011;31884;52.538;13.820;2023-08-31T08:29:07;5.45;;;2.20;;
44842;SDS011;31884;52.538;13.820;2023-08-31T08:31:32;4.70;;;2.28;;
44842;SDS011;31884;52.538;13.820;2023-08-31T08:33:58;5.68;;;2.30;;
44842;SDS011;31884;52.538;13.820;2023-08-31T08:36:23;2.22;;;1.67;;
44842;SDS011;31884;52.538;13.820;2023-08-31T08:38:49;5.35;;;2.22;;
44842;SDS011;31884;52.538;13.820;2023-08-31T08:41:14;3.75;;;1.90;;
44842;SDS011;31884;52.538;13.820;2023-08-31T08:43:44;2.25;;;1.70;;
44842;SDS011;31884;52.538;13.820;2023-08-31T08:46:12;5.43;;;1.90;;
44842;SDS011;31884;52.538;13.820;2023-08-31T08:48:38;3.38;;;1.42;;
44842;SDS011;31884;52.538;13.820;2023-08-31T08:51:05;3.42;;;1.58;;
44842;SDS011;31884;52.538;13.820;2023-08-31T08:53:32;3.97;;;1.30;;
44842;SDS011;31884;52.538;13.820;2023-08-31T08:55:58;4.50;;;1.70;;
44842;SDS011;31884;52.538;13.820;2023-08-31T08:58:23;1.80;;;1.55;;
44842;SDS011;31884;52.538;13.820;2023-08-31T09:00:49;3.67;;;1.40;;
44842;SDS011;31884;52.538;13.820;2023-08-31T09:03:16;3.13;;;1.25;;
44842;SDS011;31884;52.538;13.820;2023-08-31T09:05:42;3.22;;;1.35;;
44842;SDS011;31884;52.538;13.820;2023-08-31T09:08:08;4.07;;;1.58;;
44842;SDS011;31884;52.538;13.820;2023-08-31T09:10:39;2.25;;;1.17;;
44842;SDS011;31884;52.538;13.820;2023-08-31T09:13:13;2.03;;;0.90;;
44842;SDS011;31884;52.538;13.820;2023-08-31T09:15:46;3.50;;;1.25;;
44842;SDS011;31884;52.538;13.820;2023-08-31T09:18:13;3.70;;;1.15;;
44842;SDS011;31884;52.538;13.820;2023-08-31T09:20:59;1.63;;;0.90;;
44842;SDS011;31884;52.538;13.820;2023-08-31T09:23:25;1.98;;;0.90;;
44842;SDS011;31884;52.538;13.820;2023-08-31T09:25:52;2.67;;;0.85;;
44842;SDS011;31884;52.538;13.820;2023-08-31T09:28:20;2.25;;;0.90;;
44842;SDS011;31884;52.538;13.820;2023-08-31T09:30:51;2.67;;;1.25;;
44842;SDS011;31884;52.538;13.820;2023-08-31T09:33:18;1.60;;;1.08;;
44842;SDS011;31884;52.538;13.820;2023-08-31T09:35:56;3.65;;;1.23;;
44842;SDS011;31884;52.538;13.820;2023-08-31T09:38:24;1.25;;;0.82;;
44842;SDS011;31884;52.538;13.820;2023-08-31T09:40:50;1.52;;;1.08;;
44842;SDS011;31884;52.538;13.820;2023-08-31T09:43:19;2.65;;;0.98;;
44842;SDS011;31884;52.538;13.820;2023-08-31T09:45:46;1.92;;;1.13;;
44842;SDS011;31884;52.538;13.820;2023-08-31T09:48:13;2.00;;;1.20;;
44842;SDS011;31884;52.538;13.820;2023-08-31T09:50:40;2.58;;;1.20;;
44842;SDS011;31884;52.538;13.820;2023-08-31T09:53:09;1.73;;;0.98;;
44842;SDS011;31884;52.538;13.820;2023-08-31T09:55:35;2.05;;;0.90;;
44842;SDS011;31884;52.538;13.820;2023-08-31T09:58:04;3.65;;;1.10;;
44842;SDS011;31884;52.538;13.820;2023-08-31T10:00:32;1.77;;;1.00;;
44842;SDS011;31884;52.538;13.820;2023-08-31T10:03:02;3.00;;;1.15;;
44842;SDS011;31884;52.538;13.820;2023-08-31T10:05:29;3.65;;;1.00;;
44842;SDS011;31884;52.538;13.820;2023-08-31T10:07:56;1.25;;;0.95;;
44842;SDS011;31884;52.538;13.820;2023-08-31T10:10:23;2.40;;;0.80;;
44842;SDS011;31884;52.538;13.820;2023-08-31T10:12:49;2.03;;;0.90;;
44842;SDS011;31884;52.538;13.820;2023-08-31T10:15:16;1.98;;;0.85;;
44842;SDS011;31884;52.538;13.820;2023-08-31T10:17:43;2.75;;;1.30;;
44842;SDS011;31884;52.538;13.820;2023-08-31T10:20:09;1.70;;;1.13;;
44842;SDS011;31884;52.538;13.820;2023-08-31T10:22:36;2.72;;;1.05;;
44842;SDS011;31884;52.538;13.820;2023-08-31T10:25:04;1.85;;;1.10;;
44842;SDS011;31884;52.538;13.820;2023-08-31T10:27:40;1.83;;;0.70;;
44842;SDS011;31884;52.538;13.820;2023-08-31T10:30:14;2.13;;;0.95;;
44842;SDS011;31884;52.538;13.820;2023-08-31T10:32:40;5.45;;;1.08;;
44842;SDS011;31884;52.538;13.820;2023-08-31T10:35:07;2.50;;;0.90;;
44842;SDS011;31884;52.538;13.820;2023-08-31T10:37:33;1.77;;;1.20;;
44842;SDS011;31884;52.538;13.820;2023-08-31T10:40:08;0.90;;;0.77;;
44842;SDS011;31884;52.538;13.820;2023-08-31T10:42:46;1.27;;;0.70;;
44842;SDS011;31884;52.538;13.820;2023-08-31T10:45:19;1.50;;;0.70;;
44842;SDS011;31884;52.538;13.820;2023-08-31T10:47:46;1.98;;;0.80;;
44842;SDS011;31884;52.538;13.820;2023-08-31T10:50:21;2.55;;;1.08;;
44842;SDS011;31884;52.538;13.820;2023-08-31T10:52:47;2.67;;;0.90;;
44842;SDS011;31884;52.538;13.820;2023-08-31T10:55:14;3.80;;;1.20;;
44842;SDS011;31884;52.538;13.820;2023-08-31T10:57:40;2.22;;;1.25;;
44842;SDS011;31884;52.538;13.820;2023-08-31T11:00:06;3.65;;;0.95;;
44842;SDS011;31884;52.538;13.820;2023-08-31T11:02:36;1.25;;;0.75;;
44842;SDS011;31884;52.538;13.820;2023-08-31T11:07:49;1.67;;;1.20;;
44842;SDS011;31884;52.538;13.820;2023-08-31T11:12:45;2.42;;;0.88;;
44842;SDS011;31884;52.538;13.820;2023-08-31T11:15:12;1.52;;;0.98;;
44842;SDS011;31884;52.538;13.820;2023-08-31T11:17:39;2.58;;;1.00;;
44842;SDS011;31884;52.538;13.820;2023-08-31T11:20:06;1.35;;;1.00;;
44842;SDS011;31884;52.538;13.820;2023-08-31T11:22:34;1.05;;;0.80;;
44842;SDS011;31884;52.538;13.820;2023-08-31T11:25:04;1.50;;;1.08;;
44842;SDS011;31884;52.538;13.820;2023-08-31T11:27:30;1.88;;;1.00;;
44842;SDS011;31884;52.538;13.820;2023-08-31T11:29:55;2.00;;;0.70;;
44842;SDS011;31884;52.538;13.820;2023-08-31T11:32:24;2.58;;;0.90;;
44842;SDS011;31884;52.538;13.820;2023-08-31T11:34:52;1.00;;;0.70;;
44842;SDS011;31884;52.538;13.820;2023-08-31T11:37:17;3.03;;;0.60;;
44842;SDS011;31884;52.538;13.820;2023-08-31T11:39:51;0.50;;;0.50;;
44842;SDS011;31884;52.538;13.820;2023-08-31T11:42:18;1.85;;;0.70;;
44842;SDS011;31884;52.538;13.820;2023-08-31T11:44:48;2.13;;;0.70;;
44842;SDS011;31884;52.538;13.820;2023-08-31T11:47:16;2.10;;;0.90;;
44842;SDS011;31884;52.538;13.820;2023-08-31T11:49:42;1.83;;;0.68;;
44842;SDS011;31884;52.538;13.820;2023-08-31T11:52:09;1.58;;;0.90;;
44842;SDS011;31884;52.538;13.820;2023-08-31T11:54:37;1.10;;;0.82;;
44842;SDS011;31884;52.538;13.820;2023-08-31T11:57:06;1.10;;;0.77;;
44842;SDS011;31884;52.538;13.820;2023-08-31T11:59:33;2.17;;;0.60;;
44842;SDS011;31884;52.538;13.820;2023-08-31T12:02:06;2.17;;;0.70;;
44842;SDS011;31884;52.538;13.820;2023-08-31T12:04:33;1.52;;;0.70;;
44842;SDS011;31884;52.538;13.820;2023-08-31T12:07:02;2.00;;;0.68;;
44842;SDS011;31884;52.538;13.820;2023-08-31T12:09:31;1.35;;;0.60;;
44842;SDS011;31884;52.538;13.820;2023-08-31T12:11:57;0.95;;;0.70;;
44842;SDS011;31884;52.538;13.820;2023-08-31T12:14:23;3.40;;;0.95;;
44842;SDS011;31884;52.538;13.820;2023-08-31T12:16:51;0.95;;;0.65;;
44842;SDS011;31884;52.538;13.820;2023-08-31T12:19:17;2.08;;;0.85;;
44842;SDS011;31884;52.538;13.820;2023-08-31T12:21:44;1.25;;;0.77;;
44842;SDS011;31884;52.538;13.820;2023-08-31T12:24:11;3.22;;;1.00;;
44842;SDS011;31884;52.538;13.820;2023-08-31T12:26:36;2.88;;;0.93;;
44842;SDS011;31884;52.538;13.820;2023-08-31T12:29:02;0.90;;;0.70;;
44842;SDS011;31884;52.538;13.820;2023-08-31T12:31:32;0.88;;;0.88;;
44842;SDS011;31884;52.538;13.820;2023-08-31T12:33:58;0.82;;;0.82;;
44842;SDS011;31884;52.538;13.820;2023-08-31T12:36:24;2.47;;;0.75;;
44842;SDS011;31884;52.538;13.820;2023-08-31T12:38:50;1.25;;;0.95;;
44842;SDS011;31884;52.538;13.820;2023-08-31T12:41:17;0.82;;;0.82;;
44842;SDS011;31884;52.538;13.820;2023-08-31T12:43:42;0.70;;;0.60;;
44842;SDS011;31884;52.538;13.820;2023-08-31T12:46:08;1.50;;;0.80;;
44842;SDS011;31884;52.538;13.820;2023-08-31T12:48:34;1.00;;;0.80;;
44842;SDS011;31884;52.538;13.820;2023-08-31T12:51:00;4.80;;;1.08;;
44842;SDS011;31884;52.538;13.820;2023-08-31T12:53:26;3.72;;;1.40;;
44842;SDS011;31884;52.538;13.820;2023-08-31T12:55:52;3.63;;;1.05;;
44842;SDS011;31884;52.538;13.820;2023-08-31T12:58:19;2.72;;;1.08;;
44842;SDS011;31884;52.538;13.820;2023-08-31T13:00:45;1.45;;;0.80;;
44842;SDS011;31884;52.538;13.820;2023-08-31T13:03:12;1.08;;;0.80;;
44842;SDS011;31884;52.538;13.820;2023-08-31T13:05:39;1.45;;;0.98;;
44842;SDS011;31884;52.538;13.820;2023-08-31T13:08:05;0.93;;;0.73;;
44842;SDS011;31884;52.538;13.820;2023-08-31T13:10:31;3.05;;;0.75;;
44842;SDS011;31884;52.538;13.820;2023-08-31T13:12:56;1.55;;;0.70;;
44842;SDS011;31884;52.538;13.820;2023-08-31T13:15:22;1.25;;;0.90;;
44842;SDS011;31884;52.538;13.820;2023-08-31T13:17:47;1.48;;;0.75;;
44842;SDS011;31884;52.538;13.820;2023-08-31T13:20:13;1.50;;;1.05;;
44842;SDS011;31884;52.538;13.820;2023-08-31T13:22:38;1.60;;;0.70;;
44842;SDS011;31884;52.538;13.820;2023-08-31T13:25:04;2.17;;;0.90;;
44842;SDS011;31884;52.538;13.820;2023-08-31T13:27:30;2.15;;;1.10;;
44842;SDS011;31884;52.538;13.820;2023-08-31T13:29:58;3.65;;;1.10;;
44842;SDS011;31884;52.538;13.820;2023-08-31T13:32:23;1.88;;;0.93;;
44842;SDS011;31884;52.538;13.820;2023-08-31T13:34:49;1.63;;;0.90;;
44842;SDS011;31884;52.538;13.820;2023-08-31T13:37:15;2.22;;;0.93;;
44842;SDS011;31884;52.538;13.820;2023-08-31T13:39:40;2.72;;;1.10;;
44842;SDS011;31884;52.538;13.820;2023-08-31T13:42:06;1.45;;;0.80;;
44842;SDS011;31884;52.538;13.820;2023-08-31T13:44:32;1.60;;;1.10;;
44842;SDS011;31884;52.538;13.820;2023-08-31T13:46:58;2.47;;;1.10;;
44842;SDS011;31884;52.538;13.820;2023-08-31T13:49:24;2.45;;;1.20;;
44842;SDS011;31884;52.538;13.820;2023-08-31T13:51:49;1.00;;;0.85;;
44842;SDS011;31884;52.538;13.820;2023-08-31T13:54:15;0.80;;;0.80;;
44842;SDS011;31884;52.538;13.820;2023-08-31T13:56:41;2.15;;;1.20;;
44842;SDS011;31884;52.538;13.820;2023-08-31T13:59:07;1.80;;;1.08;;
44842;SDS011;31884;52.538;13.820;2023-08-31T14:01:33;1.20;;;1.10;;
44842;SDS011;31884;52.538;13.820;2023-08-31T14:03:58;1.95;;;1.20;;
44842;SDS011;31884;52.538;13.820;2023-08-31T14:06:24;1.38;;;1.27;;
44842;SDS011;31884;52.538;13.820;2023-08-31T14:08:49;2.58;;;1.10;;
44842;SDS011;31884;52.538;13.820;2023-08-31T14:11:15;2.88;;;1.10;;
44842;SDS011;31884;52.538;13.820;2023-08-31T14:13:42;1.98;;;1.20;;
44842;SDS011;31884;52.538;13.820;2023-08-31T14:16:09;1.25;;;1.00;;
44842;SDS011;31884;52.538;13.820;2023-08-31T14:18:34;1.40;;;1.30;;
44842;SDS011;31884;52.538;13.820;2023-08-31T14:21:00;2.33;;;1.02;;
44842;SDS011;31884;52.538;13.820;2023-08-31T14:23:26;1.40;;;0.82;;
44842;SDS011;31884;52.538;13.820;2023-08-31T14:25:52;1.25;;;0.70;;
44842;SDS011;31884;52.538;13.820;2023-08-31T14:28:17;1.20;;;1.10;;
44842;SDS011;31884;52.538;13.820;2023-08-31T14:30:42;2.83;;;1.30;;
44842;SDS011;31884;52.538;13.820;2023-08-31T14:33:08;1.98;;;1.00;;
44842;SDS011;31884;52.538;13.820;2023-08-31T14:35:37;1.60;;;0.80;;
44842;SDS011;31884;52.538;13.820;2023-08-31T14:38:03;1.17;;;1.08;;